sensor_id;sensor_type;location;lat;lon;timestamp;P1;durP1;ratioP1;P2;durP2;ratioP2
23472;SDS011;11909;52.516;13.564;2024-02-16T00:01:50;10.88;;;7.18;;
23472;SDS011;11909;52.516;13.564;2024-02-16T00:04:18;7.18;;;5.63;;
23472;SDS011;11909;52.516;13.564;2024-02-16T00:06:46;8.77;;;7.00;;
23472;SDS011;11909;52.516;13.564;2024-02-16T00:09:15;16.52;;;8.38;;
23472;SDS011;11909;52.516;13.564;2024-02-16T00:11:43;11.45;;;9.02;;
23472;SDS011;11909;52.516;13.564;2024-02-16T00:14:13;10.90;;;8.27;;
23472;SDS011;11909;52.516;13.564;2024-02-16T00:16:43;10.88;;;8.45;;
23472;SDS011;11909;52.516;13.564;2024-02-16T00:19:11;8.85;;;7.22;;
23472;SDS011;11909;52.516;13.564;2024-02-16T00:21:39;12.85;;;8.18;;
23472;SDS011;11909;52.516;13.564;2024-02-16T00:24:09;14.15;;;8.65;;
23472;SDS011;11909;52.516;13.564;2024-02-16T00:26:37;11.35;;;9.35;;
23472;SDS011;11909;52.516;13.564;2024-02-16T00:31:36;8.70;;;7.68;;
23472;SDS011;11909;52.516;13.564;2024-02-16T00:34:05;10.05;;;8.43;;
23472;SDS011;11909;52.516;13.564;2024-02-16T00:39:04;12.75;;;8.93;;
23472;SDS011;11909;52.516;13.564;2024-02-16T00:41:31;9.70;;;7.97;;
23472;SDS011;11909;52.516;13.564;2024-02-16T00:43:59;10.65;;;8.30;;
23472;SDS011;11909;52.516;13.564;2024-02-16T00:46:27;12.18;;;8.63;;
23472;SDS011;11909;52.516;13.564;2024-02-16T00:48:55;13.57;;;10.35;;
23472;SDS011;11909;52.516;13.564;2024-02-16T00:51:25;13.90;;;9.27;;
23472;SDS011;11909;52.516;13.564;2024-02-16T00:53:53;11.25;;;8.80;;
23472;SDS011;11909;52.516;13.564;2024-02-16T00:56:21;13.15;;;9.35;;
23472;SDS011;11909;52.516;13.564;2024-02-16T00:58:50;10.32;;;8.80;;
23472;SDS011;11909;52.516;13.564;2024-02-16T01:01:18;18.00;;;11.23;;
23472;SDS011;11909;52.516;13.564;2024-02-16T01:03:47;15.43;;;11.38;;
23472;SDS011;11909;52.516;13.564;2024-02-16T01:06:16;16.38;;;10.95;;
23472;SDS011;11909;52.516;13.564;2024-02-16T01:08:45;11.93;;;9.32;;
23472;SDS011;11909;52.516;13.564;2024-02-16T01:11:13;13.38;;;9.43;;
23472;SDS011;11909;52.516;13.564;2024-02-16T01:13:41;12.27;;;9.32;;
23472;SDS011;11909;52.516;13.564;2024-02-16T01:16:10;12.02;;;9.48;;
23472;SDS011;11909;52.516;13.564;2024-02-16T01:18:39;13.15;;;10.55;;
23472;SDS011;11909;52.516;13.564;2024-02-16T01:21:07;16.20;;;10.82;;
23472;SDS011;11909;52.516;13.564;2024-02-16T01:23:35;16.02;;;11.30;;
23472;SDS011;11909;52.516;13.564;2024-02-16T01:26:05;14.52;;;11.10;;
23472;SDS011;11909;52.516;13.564;2024-02-16T01:28:33;14.35;;;11.50;;
23472;SDS011;11909;52.516;13.564;2024-02-16T01:31:00;16.15;;;11.05;;
23472;SDS011;11909;52.516;13.564;2024-02-16T01:33:29;13.50;;;11.13;;
23472;SDS011;11909;52.516;13.564;2024-02-16T01:36:01;20.70;;;14.85;;
23472;SDS011;11909;52.516;13.564;2024-02-16T01:38:30;14.07;;;11.60;;
23472;SDS011;11909;52.516;13.564;2024-02-16T01:40:58;13.02;;;11.30;;
23472;SDS011;11909;52.516;13.564;2024-02-16T01:43:27;15.23;;;11.32;;
23472;SDS011;11909;52.516;13.564;2024-02-16T01:45:55;15.80;;;11.43;;
23472;SDS011;11909;52.516;13.564;2024-02-16T01:48:25;17.42;;;13.15;;
23472;SDS011;11909;52.516;13.564;2024-02-16T01:50:53;13.55;;;11.95;;
23472;SDS011;11909;52.516;13.564;2024-02-16T01:53:21;21.83;;;16.30;;
23472;SDS011;11909;52.516;13.564;2024-02-16T01:55:51;18.67;;;13.82;;
23472;SDS011;11909;52.516;13.564;2024-02-16T01:58:19;16.27;;;13.25;;
23472;SDS011;11909;52.516;13.564;2024-02-16T02:00:48;16.50;;;13.43;;
23472;SDS011;11909;52.516;13.564;2024-02-16T02:03:16;16.73;;;14.15;;
23472;SDS011;11909;52.516;13.564;2024-02-16T02:05:44;18.27;;;14.32;;
23472;SDS011;11909;52.516;13.564;2024-02-16T02:08:13;16.17;;;13.30;;
23472;SDS011;11909;52.516;13.564;2024-02-16T02:10:42;16.70;;;13.27;;
23472;SDS011;11909;52.516;13.564;2024-02-16T02:13:10;15.40;;;13.75;;
23472;SDS011;11909;52.516;13.564;2024-02-16T02:15:37;24.27;;;16.75;;
23472;SDS011;11909;52.516;13.564;2024-02-16T02:18:07;20.52;;;15.55;;
23472;SDS011;11909;52.516;13.564;2024-02-16T02:20:35;20.85;;;16.38;;
23472;SDS011;11909;52.516;13.564;2024-02-16T02:23:04;19.77;;;14.93;;
23472;SDS011;11909;52.516;13.564;2024-02-16T02:25:32;19.17;;;15.45;;
23472;SDS011;11909;52.516;13.564;2024-02-16T02:28:01;20.73;;;14.93;;
23472;SDS011;11909;52.516;13.564;2024-02-16T02:30:29;19.95;;;15.10;;
23472;SDS011;11909;52.516;13.564;2024-02-16T02:32:57;21.42;;;15.32;;
23472;SDS011;11909;52.516;13.564;2024-02-16T02:35:26;19.52;;;16.00;;
23472;SDS011;11909;52.516;13.564;2024-02-16T02:37:53;18.50;;;15.80;;
23472;SDS011;11909;52.516;13.564;2024-02-16T02:40:23;21.75;;;15.85;;
23472;SDS011;11909;52.516;13.564;2024-02-16T02:42:52;19.55;;;14.90;;
23472;SDS011;11909;52.516;13.564;2024-02-16T02:45:19;19.52;;;15.50;;
23472;SDS011;11909;52.516;13.564;2024-02-16T02:47:48;20.80;;;15.15;;
23472;SDS011;11909;52.516;13.564;2024-02-16T02:50:16;18.75;;;15.35;;
23472;SDS011;11909;52.516;13.564;2024-02-16T02:52:44;21.02;;;15.38;;
23472;SDS011;11909;52.516;13.564;2024-02-16T02:55:12;21.25;;;15.05;;
23472;SDS011;11909;52.516;13.564;2024-02-16T02:57:43;21.30;;;15.02;;
23472;SDS011;11909;52.516;13.564;2024-02-16T03:00:11;17.38;;;15.25;;
23472;SDS011;11909;52.516;13.564;2024-02-16T03:02:40;23.95;;;16.92;;
23472;SDS011;11909;52.516;13.564;2024-02-16T03:07:38;19.45;;;15.40;;
23472;SDS011;11909;52.516;13.564;2024-02-16T03:10:06;23.00;;;16.42;;
23472;SDS011;11909;52.516;13.564;2024-02-16T03:12:36;18.10;;;15.30;;
23472;SDS011;11909;52.516;13.564;2024-02-16T03:15:06;19.80;;;15.88;;
23472;SDS011;11909;52.516;13.564;2024-02-16T03:20:03;19.02;;;15.45;;
23472;SDS011;11909;52.516;13.564;2024-02-16T03:22:31;18.50;;;15.18;;
23472;SDS011;11909;52.516;13.564;2024-02-16T03:24:59;23.05;;;16.67;;
23472;SDS011;11909;52.516;13.564;2024-02-16T03:27:27;24.95;;;16.70;;
23472;SDS011;11909;52.516;13.564;2024-02-16T03:29:55;22.25;;;16.33;;
23472;SDS011;11909;52.516;13.564;2024-02-16T03:32:24;19.52;;;15.82;;
23472;SDS011;11909;52.516;13.564;2024-02-16T03:34:53;20.67;;;14.77;;
23472;SDS011;11909;52.516;13.564;2024-02-16T03:37:21;21.70;;;15.93;;
23472;SDS011;11909;52.516;13.564;2024-02-16T03:39:49;18.80;;;14.07;;
23472;SDS011;11909;52.516;13.564;2024-02-16T03:42:17;20.30;;;15.35;;
23472;SDS011;11909;52.516;13.564;2024-02-16T03:44:45;20.58;;;16.02;;
23472;SDS011;11909;52.516;13.564;2024-02-16T03:47:14;20.15;;;15.35;;
23472;SDS011;11909;52.516;13.564;2024-02-16T03:49:43;20.30;;;15.75;;
23472;SDS011;11909;52.516;13.564;2024-02-16T03:52:11;19.00;;;15.45;;
23472;SDS011;11909;52.516;13.564;2024-02-16T03:54:40;21.00;;;15.98;;
23472;SDS011;11909;52.516;13.564;2024-02-16T03:57:08;21.70;;;16.58;;
23472;SDS011;11909;52.516;13.564;2024-02-16T03:59:38;18.85;;;14.85;;
23472;SDS011;11909;52.516;13.564;2024-02-16T04:02:06;24.10;;;16.40;;
23472;SDS011;11909;52.516;13.564;2024-02-16T04:04:34;19.70;;;15.75;;
23472;SDS011;11909;52.516;13.564;2024-02-16T04:07:04;18.30;;;15.20;;
23472;SDS011;11909;52.516;13.564;2024-02-16T04:09:53;19.73;;;14.57;;
23472;SDS011;11909;52.516;13.564;2024-02-16T04:12:21;20.35;;;14.38;;
23472;SDS011;11909;52.516;13.564;2024-02-16T04:14:49;21.10;;;15.75;;
23472;SDS011;11909;52.516;13.564;2024-02-16T04:17:17;20.33;;;14.95;;
23472;SDS011;11909;52.516;13.564;2024-02-16T04:19:45;22.20;;;15.20;;
23472;SDS011;11909;52.516;13.564;2024-02-16T04:22:14;16.92;;;13.80;;
23472;SDS011;11909;52.516;13.564;2024-02-16T04:24:42;19.98;;;14.65;;
23472;SDS011;11909;52.516;13.564;2024-02-16T04:27:10;19.27;;;15.05;;
23472;SDS011;11909;52.516;13.564;2024-02-16T04:29:39;18.27;;;13.98;;
23472;SDS011;11909;52.516;13.564;2024-02-16T04:32:06;19.55;;;15.40;;
23472;SDS011;11909;52.516;13.564;2024-02-16T04:34:34;17.73;;;13.85;;
23472;SDS011;11909;52.516;13.564;2024-02-16T04:37:03;18.25;;;14.27;;
23472;SDS011;11909;52.516;13.564;2024-02-16T04:39:32;17.05;;;14.52;;
23472;SDS011;11909;52.516;13.564;2024-02-16T04:42:00;18.90;;;13.55;;
23472;SDS011;11909;52.516;13.564;2024-02-16T04:44:28;19.50;;;14.15;;
23472;SDS011;11909;52.516;13.564;2024-02-16T04:46:56;19.15;;;15.20;;
23472;SDS011;11909;52.516;13.564;2024-02-16T04:49:24;19.27;;;14.55;;
23472;SDS011;11909;52.516;13.564;2024-02-16T04:51:52;17.70;;;13.88;;
23472;SDS011;11909;52.516;13.564;2024-02-16T04:54:20;19.38;;;13.82;;
23472;SDS011;11909;52.516;13.564;2024-02-16T04:56:50;22.05;;;14.82;;
23472;SDS011;11909;52.516;13.564;2024-02-16T04:59:18;22.85;;;15.98;;
23472;SDS011;11909;52.516;13.564;2024-02-16T05:01:46;16.42;;;13.60;;
23472;SDS011;11909;52.516;13.564;2024-02-16T05:04:14;20.15;;;14.10;;
23472;SDS011;11909;52.516;13.564;2024-02-16T05:06:44;17.42;;;14.20;;
23472;SDS011;11909;52.516;13.564;2024-02-16T05:09:13;18.48;;;13.90;;
23472;SDS011;11909;52.516;13.564;2024-02-16T05:11:43;17.35;;;13.55;;
23472;SDS011;11909;52.516;13.564;2024-02-16T05:14:13;19.30;;;13.65;;
23472;SDS011;11909;52.516;13.564;2024-02-16T05:16:43;17.58;;;13.43;;
23472;SDS011;11909;52.516;13.564;2024-02-16T05:19:11;17.52;;;13.45;;
23472;SDS011;11909;52.516;13.564;2024-02-16T05:21:39;17.63;;;14.05;;
23472;SDS011;11909;52.516;13.564;2024-02-16T05:24:07;17.63;;;13.02;;
23472;SDS011;11909;52.516;13.564;2024-02-16T05:26:36;16.50;;;12.93;;
23472;SDS011;11909;52.516;13.564;2024-02-16T05:29:04;18.10;;;13.30;;
23472;SDS011;11909;52.516;13.564;2024-02-16T05:31:33;20.58;;;13.75;;
23472;SDS011;11909;52.516;13.564;2024-02-16T05:34:01;19.50;;;14.35;;
23472;SDS011;11909;52.516;13.564;2024-02-16T05:36:29;18.05;;;12.85;;
23472;SDS011;11909;52.516;13.564;2024-02-16T05:39:02;18.15;;;13.77;;
23472;SDS011;11909;52.516;13.564;2024-02-16T05:41:47;19.48;;;13.43;;
23472;SDS011;11909;52.516;13.564;2024-02-16T05:44:15;16.48;;;12.43;;
23472;SDS011;11909;52.516;13.564;2024-02-16T05:46:45;16.88;;;13.13;;
23472;SDS011;11909;52.516;13.564;2024-02-16T05:49:13;16.70;;;11.38;;
23472;SDS011;11909;52.516;13.564;2024-02-16T05:51:42;15.18;;;11.77;;
23472;SDS011;11909;52.516;13.564;2024-02-16T05:54:27;19.58;;;13.70;;
23472;SDS011;11909;52.516;13.564;2024-02-16T05:56:55;16.00;;;12.40;;
23472;SDS011;11909;52.516;13.564;2024-02-16T05:59:22;14.85;;;11.60;;
23472;SDS011;11909;52.516;13.564;2024-02-16T06:01:52;15.90;;;11.90;;
23472;SDS011;11909;52.516;13.564;2024-02-16T06:04:20;15.80;;;11.77;;
23472;SDS011;11909;52.516;13.564;2024-02-16T06:06:48;20.45;;;13.38;;
23472;SDS011;11909;52.516;13.564;2024-02-16T06:09:16;17.67;;;12.77;;
23472;SDS011;11909;52.516;13.564;2024-02-16T06:11:44;19.10;;;12.80;;
23472;SDS011;11909;52.516;13.564;2024-02-16T06:14:12;17.88;;;12.38;;
23472;SDS011;11909;52.516;13.564;2024-02-16T06:16:45;18.33;;;12.82;;
23472;SDS011;11909;52.516;13.564;2024-02-16T06:19:15;19.67;;;12.88;;
23472;SDS011;11909;52.516;13.564;2024-02-16T06:21:43;17.58;;;12.73;;
23472;SDS011;11909;52.516;13.564;2024-02-16T06:24:11;16.52;;;12.57;;
23472;SDS011;11909;52.516;13.564;2024-02-16T06:26:39;17.15;;;12.55;;
23472;SDS011;11909;52.516;13.564;2024-02-16T06:29:07;16.35;;;11.50;;
23472;SDS011;11909;52.516;13.564;2024-02-16T06:31:35;19.30;;;12.43;;
23472;SDS011;11909;52.516;13.564;2024-02-16T06:34:03;17.58;;;12.93;;
23472;SDS011;11909;52.516;13.564;2024-02-16T06:36:32;17.92;;;12.23;;
23472;SDS011;11909;52.516;13.564;2024-02-16T06:39:01;16.17;;;11.73;;
23472;SDS011;11909;52.516;13.564;2024-02-16T06:41:29;18.05;;;11.63;;
23472;SDS011;11909;52.516;13.564;2024-02-16T06:43:57;18.10;;;11.98;;
23472;SDS011;11909;52.516;13.564;2024-02-16T06:46:25;17.02;;;12.27;;
23472;SDS011;11909;52.516;13.564;2024-02-16T06:48:55;19.30;;;12.37;;
23472;SDS011;11909;52.516;13.564;2024-02-16T06:53:52;18.08;;;13.63;;
23472;SDS011;11909;52.516;13.564;2024-02-16T06:56:21;18.98;;;13.02;;
23472;SDS011;11909;52.516;13.564;2024-02-16T06:58:48;20.40;;;13.18;;
23472;SDS011;11909;52.516;13.564;2024-02-16T07:01:16;17.00;;;13.27;;
23472;SDS011;11909;52.516;13.564;2024-02-16T07:03:45;16.63;;;13.15;;
23472;SDS011;11909;52.516;13.564;2024-02-16T07:06:13;20.20;;;14.25;;
23472;SDS011;11909;52.516;13.564;2024-02-16T07:08:42;18.88;;;13.63;;
23472;SDS011;11909;52.516;13.564;2024-02-16T07:11:12;17.30;;;12.52;;
23472;SDS011;11909;52.516;13.564;2024-02-16T07:13:40;18.70;;;13.05;;
23472;SDS011;11909;52.516;13.564;2024-02-16T07:16:10;15.50;;;11.68;;
23472;SDS011;11909;52.516;13.564;2024-02-16T07:18:37;17.52;;;12.35;;
23472;SDS011;11909;52.516;13.564;2024-02-16T07:21:05;16.25;;;12.32;;
23472;SDS011;11909;52.516;13.564;2024-02-16T07:23:34;16.15;;;12.18;;
23472;SDS011;11909;52.516;13.564;2024-02-16T07:26:02;18.08;;;12.55;;
23472;SDS011;11909;52.516;13.564;2024-02-16T07:28:34;17.00;;;11.95;;
23472;SDS011;11909;52.516;13.564;2024-02-16T07:31:03;17.47;;;13.07;;
23472;SDS011;11909;52.516;13.564;2024-02-16T07:33:31;17.17;;;12.35;;
23472;SDS011;11909;52.516;13.564;2024-02-16T07:35:59;17.45;;;12.68;;
23472;SDS011;11909;52.516;13.564;2024-02-16T07:38:27;19.88;;;13.27;;
23472;SDS011;11909;52.516;13.564;2024-02-16T07:40:55;20.15;;;13.77;;
23472;SDS011;11909;52.516;13.564;2024-02-16T07:43:23;17.98;;;13.10;;
23472;SDS011;11909;52.516;13.564;2024-02-16T07:45:53;17.65;;;13.40;;
23472;SDS011;11909;52.516;13.564;2024-02-16T07:48:21;16.77;;;12.35;;
23472;SDS011;11909;52.516;13.564;2024-02-16T07:50:49;21.55;;;13.60;;
23472;SDS011;11909;52.516;13.564;2024-02-16T07:53:17;17.10;;;12.80;;
23472;SDS011;11909;52.516;13.564;2024-02-16T07:55:45;18.52;;;12.90;;
23472;SDS011;11909;52.516;13.564;2024-02-16T07:58:13;16.88;;;11.93;;
23472;SDS011;11909;52.516;13.564;2024-02-16T08:00:41;18.83;;;13.45;;
23472;SDS011;11909;52.516;13.564;2024-02-16T08:03:11;16.40;;;12.25;;
23472;SDS011;11909;52.516;13.564;2024-02-16T08:05:39;18.05;;;12.73;;
23472;SDS011;11909;52.516;13.564;2024-02-16T08:08:07;18.80;;;11.80;;
23472;SDS011;11909;52.516;13.564;2024-02-16T08:10:35;16.00;;;11.95;;
23472;SDS011;11909;52.516;13.564;2024-02-16T08:13:03;17.85;;;11.95;;
23472;SDS011;11909;52.516;13.564;2024-02-16T08:15:31;16.20;;;11.95;;
23472;SDS011;11909;52.516;13.564;2024-02-16T08:17:59;15.30;;;11.48;;
23472;SDS011;11909;52.516;13.564;2024-02-16T08:20:28;18.23;;;12.00;;
23472;SDS011;11909;52.516;13.564;2024-02-16T08:22:56;13.95;;;11.15;;
23472;SDS011;11909;52.516;13.564;2024-02-16T08:25:26;14.48;;;10.90;;
23472;SDS011;11909;52.516;13.564;2024-02-16T08:27:54;16.55;;;11.43;;
23472;SDS011;11909;52.516;13.564;2024-02-16T08:30:22;17.15;;;11.27;;
23472;SDS011;11909;52.516;13.564;2024-02-16T08:32:51;15.27;;;10.95;;
23472;SDS011;11909;52.516;13.564;2024-02-16T08:35:20;15.57;;;11.32;;
23472;SDS011;11909;52.516;13.564;2024-02-16T08:37:49;15.35;;;10.88;;
23472;SDS011;11909;52.516;13.564;2024-02-16T08:40:18;17.25;;;12.23;;
23472;SDS011;11909;52.516;13.564;2024-02-16T08:42:46;14.00;;;10.70;;
23472;SDS011;11909;52.516;13.564;2024-02-16T08:45:14;15.45;;;10.57;;
23472;SDS011;11909;52.516;13.564;2024-02-16T08:47:43;15.95;;;11.60;;
23472;SDS011;11909;52.516;13.564;2024-02-16T08:50:15;13.50;;;10.77;;
23472;SDS011;11909;52.516;13.564;2024-02-16T08:52:44;16.08;;;10.65;;
23472;SDS011;11909;52.516;13.564;2024-02-16T08:55:13;15.05;;;10.23;;
23472;SDS011;11909;52.516;13.564;2024-02-16T08:57:42;14.63;;;9.45;;
23472;SDS011;11909;52.516;13.564;2024-02-16T09:00:10;17.02;;;11.52;;
23472;SDS011;11909;52.516;13.564;2024-02-16T09:02:39;16.90;;;11.23;;
23472;SDS011;11909;52.516;13.564;2024-02-16T09:05:07;12.73;;;9.25;;
23472;SDS011;11909;52.516;13.564;2024-02-16T09:07:36;14.40;;;9.77;;
23472;SDS011;11909;52.516;13.564;2024-02-16T09:10:04;15.27;;;10.02;;
23472;SDS011;11909;52.516;13.564;2024-02-16T09:15:03;14.27;;;10.32;;
23472;SDS011;11909;52.516;13.564;2024-02-16T09:17:32;13.75;;;10.45;;
23472;SDS011;11909;52.516;13.564;2024-02-16T09:20:00;13.50;;;9.85;;
23472;SDS011;11909;52.516;13.564;2024-02-16T09:22:31;14.35;;;10.07;;
23472;SDS011;11909;52.516;13.564;2024-02-16T09:25:01;14.05;;;9.73;;
23472;SDS011;11909;52.516;13.564;2024-02-16T09:27:29;13.73;;;10.05;;
23472;SDS011;11909;52.516;13.564;2024-02-16T09:29:59;17.02;;;10.15;;
23472;SDS011;11909;52.516;13.564;2024-02-16T09:32:27;12.73;;;9.45;;
23472;SDS011;11909;52.516;13.564;2024-02-16T09:34:55;13.88;;;10.20;;
23472;SDS011;11909;52.516;13.564;2024-02-16T09:37:23;13.98;;;10.30;;
23472;SDS011;11909;52.516;13.564;2024-02-16T09:39:51;65.95;;;39.00;;
23472;SDS011;11909;52.516;13.564;2024-02-16T09:42:20;22.77;;;16.40;;
23472;SDS011;11909;52.516;13.564;2024-02-16T09:44:54;13.88;;;10.02;;
23472;SDS011;11909;52.516;13.564;2024-02-16T09:47:23;15.80;;;10.43;;
23472;SDS011;11909;52.516;13.564;2024-02-16T09:49:55;15.82;;;10.18;;
23472;SDS011;11909;52.516;13.564;2024-02-16T09:52:23;12.23;;;9.52;;
23472;SDS011;11909;52.516;13.564;2024-02-16T09:54:52;16.55;;;9.82;;
23472;SDS011;11909;52.516;13.564;2024-02-16T09:57:20;12.70;;;8.43;;
23472;SDS011;11909;52.516;13.564;2024-02-16T09:59:48;14.02;;;9.57;;
23472;SDS011;11909;52.516;13.564;2024-02-16T10:02:16;26.00;;;17.13;;
23472;SDS011;11909;52.516;13.564;2024-02-16T10:04:45;14.98;;;9.73;;
23472;SDS011;11909;52.516;13.564;2024-02-16T10:07:13;11.85;;;9.00;;
23472;SDS011;11909;52.516;13.564;2024-02-16T10:09:41;13.00;;;9.02;;
23472;SDS011;11909;52.516;13.564;2024-02-16T10:12:10;14.73;;;9.07;;
23472;SDS011;11909;52.516;13.564;2024-02-16T10:14:38;12.35;;;8.57;;
23472;SDS011;11909;52.516;13.564;2024-02-16T10:17:07;12.13;;;8.88;;
23472;SDS011;11909;52.516;13.564;2024-02-16T10:19:36;12.73;;;8.52;;
23472;SDS011;11909;52.516;13.564;2024-02-16T10:22:09;16.13;;;8.82;;
23472;SDS011;11909;52.516;13.564;2024-02-16T10:24:39;11.48;;;8.57;;
23472;SDS011;11909;52.516;13.564;2024-02-16T10:27:13;12.88;;;8.00;;
23472;SDS011;11909;52.516;13.564;2024-02-16T10:29:43;11.15;;;8.20;;
23472;SDS011;11909;52.516;13.564;2024-02-16T10:32:12;9.93;;;7.35;;
23472;SDS011;11909;52.516;13.564;2024-02-16T10:34:40;13.02;;;7.53;;
23472;SDS011;11909;52.516;13.564;2024-02-16T10:37:10;12.40;;;7.70;;
23472;SDS011;11909;52.516;13.564;2024-02-16T10:42:07;11.88;;;7.78;;
23472;SDS011;11909;52.516;13.564;2024-02-16T10:44:37;9.82;;;7.90;;
23472;SDS011;11909;52.516;13.564;2024-02-16T10:47:06;11.23;;;7.70;;
23472;SDS011;11909;52.516;13.564;2024-02-16T10:49:36;12.23;;;7.47;;
23472;SDS011;11909;52.516;13.564;2024-02-16T10:52:04;13.93;;;7.72;;
23472;SDS011;11909;52.516;13.564;2024-02-16T10:54:35;12.10;;;7.68;;
23472;SDS011;11909;52.516;13.564;2024-02-16T10:57:07;11.13;;;7.07;;
23472;SDS011;11909;52.516;13.564;2024-02-16T10:59:41;11.85;;;6.75;;
23472;SDS011;11909;52.516;13.564;2024-02-16T11:02:10;10.40;;;7.60;;
23472;SDS011;11909;52.516;13.564;2024-02-16T11:04:38;10.32;;;7.30;;
23472;SDS011;11909;52.516;13.564;2024-02-16T11:07:10;12.60;;;7.55;;
23472;SDS011;11909;52.516;13.564;2024-02-16T11:09:41;10.68;;;7.10;;
23472;SDS011;11909;52.516;13.564;2024-02-16T11:12:08;10.13;;;7.40;;
23472;SDS011;11909;52.516;13.564;2024-02-16T11:14:40;10.88;;;7.95;;
23472;SDS011;11909;52.516;13.564;2024-02-16T11:17:09;19.87;;;7.80;;
23472;SDS011;11909;52.516;13.564;2024-02-16T11:19:40;11.63;;;7.82;;
23472;SDS011;11909;52.516;13.564;2024-02-16T11:24:42;10.50;;;7.35;;
23472;SDS011;11909;52.516;13.564;2024-02-16T11:27:13;13.10;;;7.63;;
23472;SDS011;11909;52.516;13.564;2024-02-16T11:29:46;9.82;;;7.38;;
23472;SDS011;11909;52.516;13.564;2024-02-16T11:32:15;12.85;;;7.30;;
23472;SDS011;11909;52.516;13.564;2024-02-16T11:34:43;11.40;;;7.80;;
23472;SDS011;11909;52.516;13.564;2024-02-16T11:37:12;10.35;;;7.25;;
23472;SDS011;11909;52.516;13.564;2024-02-16T11:39:40;10.60;;;7.45;;
23472;SDS011;11909;52.516;13.564;2024-02-16T11:42:13;10.23;;;7.22;;
23472;SDS011;11909;52.516;13.564;2024-02-16T11:44:50;8.80;;;7.05;;
23472;SDS011;11909;52.516;13.564;2024-02-16T11:47:19;13.77;;;7.50;;
23472;SDS011;11909;52.516;13.564;2024-02-16T11:50:00;12.50;;;8.90;;
23472;SDS011;11909;52.516;13.564;2024-02-16T11:52:29;11.75;;;7.75;;
23472;SDS011;11909;52.516;13.564;2024-02-16T11:54:57;10.68;;;7.13;;
23472;SDS011;11909;52.516;13.564;2024-02-16T11:57:29;12.15;;;6.70;;
23472;SDS011;11909;52.516;13.564;2024-02-16T11:59:58;8.40;;;6.03;;
23472;SDS011;11909;52.516;13.564;2024-02-16T12:02:26;12.52;;;6.45;;
23472;SDS011;11909;52.516;13.564;2024-02-16T12:04:57;7.68;;;6.18;;
23472;SDS011;11909;52.516;13.564;2024-02-16T12:07:30;11.55;;;6.10;;
23472;SDS011;11909;52.516;13.564;2024-02-16T12:10:00;7.70;;;5.93;;
23472;SDS011;11909;52.516;13.564;2024-02-16T12:12:32;6.63;;;5.40;;
23472;SDS011;11909;52.516;13.564;2024-02-16T12:15:01;8.85;;;5.25;;
23472;SDS011;11909;52.516;13.564;2024-02-16T12:17:30;7.25;;;4.72;;
23472;SDS011;11909;52.516;13.564;2024-02-16T12:19:58;5.38;;;4.20;;
23472;SDS011;11909;52.516;13.564;2024-02-16T12:22:26;10.95;;;4.20;;
23472;SDS011;11909;52.516;13.564;2024-02-16T12:24:54;7.15;;;3.88;;
23472;SDS011;11909;52.516;13.564;2024-02-16T12:27:25;4.93;;;4.00;;
23472;SDS011;11909;52.516;13.564;2024-02-16T12:29:56;10.70;;;4.55;;
23472;SDS011;11909;52.516;13.564;2024-02-16T12:32:24;6.68;;;3.80;;
23472;SDS011;11909;52.516;13.564;2024-02-16T12:34:52;25.52;;;12.38;;
23472;SDS011;11909;52.516;13.564;2024-02-16T12:37:21;10.32;;;7.32;;
23472;SDS011;11909;52.516;13.564;2024-02-16T12:39:49;4.93;;;3.83;;
23472;SDS011;11909;52.516;13.564;2024-02-16T12:42:17;7.35;;;4.38;;
23472;SDS011;11909;52.516;13.564;2024-02-16T12:44:45;7.35;;;4.25;;
23472;SDS011;11909;52.516;13.564;2024-02-16T12:47:14;6.55;;;3.72;;
23472;SDS011;11909;52.516;13.564;2024-02-16T12:49:42;5.17;;;3.47;;
23472;SDS011;11909;52.516;13.564;2024-02-16T12:54:40;6.90;;;3.28;;
23472;SDS011;11909;52.516;13.564;2024-02-16T12:59:40;6.18;;;4.00;;
23472;SDS011;11909;52.516;13.564;2024-02-16T13:02:07;4.72;;;3.40;;
23472;SDS011;11909;52.516;13.564;2024-02-16T13:04:36;6.65;;;3.60;;
23472;SDS011;11909;52.516;13.564;2024-02-16T13:07:04;4.90;;;3.55;;
23472;SDS011;11909;52.516;13.564;2024-02-16T13:09:33;4.82;;;3.30;;
23472;SDS011;11909;52.516;13.564;2024-02-16T13:12:01;6.43;;;3.38;;
23472;SDS011;11909;52.516;13.564;2024-02-16T13:14:29;5.25;;;3.65;;
23472;SDS011;11909;52.516;13.564;2024-02-16T13:16:57;5.07;;;3.38;;
23472;SDS011;11909;52.516;13.564;2024-02-16T13:19:25;5.45;;;3.40;;
23472;SDS011;11909;52.516;13.564;2024-02-16T13:21:54;5.95;;;4.18;;
23472;SDS011;11909;52.516;13.564;2024-02-16T13:24:22;6.32;;;3.78;;
23472;SDS011;11909;52.516;13.564;2024-02-16T13:26:51;5.05;;;3.88;;
23472;SDS011;11909;52.516;13.564;2024-02-16T13:29:19;5.35;;;3.53;;
23472;SDS011;11909;52.516;13.564;2024-02-16T13:31:47;4.90;;;3.67;;
23472;SDS011;11909;52.516;13.564;2024-02-16T13:34:15;5.32;;;3.58;;
23472;SDS011;11909;52.516;13.564;2024-02-16T13:36:44;5.88;;;3.30;;
23472;SDS011;11909;52.516;13.564;2024-02-16T13:39:13;6.60;;;3.55;;
23472;SDS011;11909;52.516;13.564;2024-02-16T13:41:42;6.28;;;3.40;;
23472;SDS011;11909;52.516;13.564;2024-02-16T13:44:12;9.75;;;3.90;;
23472;SDS011;11909;52.516;13.564;2024-02-16T13:46:41;9.00;;;4.20;;
23472;SDS011;11909;52.516;13.564;2024-02-16T13:49:09;5.95;;;3.50;;
23472;SDS011;11909;52.516;13.564;2024-02-16T13:51:37;6.32;;;3.47;;
23472;SDS011;11909;52.516;13.564;2024-02-16T13:54:05;6.22;;;3.72;;
23472;SDS011;11909;52.516;13.564;2024-02-16T13:56:34;4.63;;;3.33;;
23472;SDS011;11909;52.516;13.564;2024-02-16T13:59:04;5.82;;;4.00;;
23472;SDS011;11909;52.516;13.564;2024-02-16T14:01:33;5.78;;;3.60;;
23472;SDS011;11909;52.516;13.564;2024-02-16T14:04:02;5.70;;;3.53;;
23472;SDS011;11909;52.516;13.564;2024-02-16T14:06:30;10.20;;;3.60;;
23472;SDS011;11909;52.516;13.564;2024-02-16T14:08:59;6.50;;;3.30;;
23472;SDS011;11909;52.516;13.564;2024-02-16T14:11:26;8.55;;;3.63;;
23472;SDS011;11909;52.516;13.564;2024-02-16T14:13:56;4.82;;;3.67;;
23472;SDS011;11909;52.516;13.564;2024-02-16T14:16:24;5.40;;;3.20;;
23472;SDS011;11909;52.516;13.564;2024-02-16T14:18:52;5.50;;;3.75;;
23472;SDS011;11909;52.516;13.564;2024-02-16T14:21:20;5.85;;;4.00;;
23472;SDS011;11909;52.516;13.564;2024-02-16T14:23:51;4.45;;;3.70;;
23472;SDS011;11909;52.516;13.564;2024-02-16T14:26:19;4.95;;;3.90;;
23472;SDS011;11909;52.516;13.564;2024-02-16T14:28:47;7.95;;;3.55;;
23472;SDS011;11909;52.516;13.564;2024-02-16T14:31:16;5.50;;;3.60;;
23472;SDS011;11909;52.516;13.564;2024-02-16T14:33:46;6.45;;;3.35;;
23472;SDS011;11909;52.516;13.564;2024-02-16T14:36:15;6.50;;;3.75;;
23472;SDS011;11909;52.516;13.564;2024-02-16T14:38:43;6.07;;;3.80;;
23472;SDS011;11909;52.516;13.564;2024-02-16T14:41:11;6.05;;;3.80;;
23472;SDS011;11909;52.516;13.564;2024-02-16T14:43:38;5.55;;;4.03;;
23472;SDS011;11909;52.516;13.564;2024-02-16T14:46:06;5.93;;;3.90;;
23472;SDS011;11909;52.516;13.564;2024-02-16T14:48:36;7.43;;;3.88;;
23472;SDS011;11909;52.516;13.564;2024-02-16T14:51:04;6.97;;;3.80;;